Aérodrome :
LOGIN :

S'inscrire | Disclaimer

   EN    FR    IT 

 










Légende :    VFR   VFR Marginal   IFR   IFR Intensif   IFR Très Intensif
Visi : 
Plafond : 
>= 8 km
>= 3000ft
5 à 8 km
1000 à 3000 ft
1500m à 5 km
500 à 1000 ft
800 à 1500m
200 à 500 ft
< 800m
< 200 ft
Symboles :   Orages  Brouillard  Fortes neiges  Fortes précipitations  Vent > 20 kt
SIGMETs :   Divers  Orages  Givrage  Turbulence  Onde Orograph.  Cendres Volcan.






- Altitude de l'aérodrome : 1521 ft
- Code IATA : NCY


LFLP - Annecy

DERNIER METAR :
  • 272130Z AUTO 24006KT 9999 FEW047 OVC060 04/M00 Q1015

METARs EXPIRÉS :
  • 272100Z AUTO VRB02KT 9999 FEW033 BKN064 BKN076 05/00 Q1015
  • 272030Z AUTO 26007KT 230V300 9999 FEW023 05/01 Q1014
  • 272000Z AUTO 27006KT 240V320 9999 FEW033 SCT045 06/01 Q1013 TEMPO VRB15G25KT 4000 SHRA BKN014TCU
  • 271930Z AUTO 28008KT 240V310 9999 FEW037 BKN052 06/02 Q1012 TEMPO VRB15G25KT 4000 SHRA BKN014TCU
  • 271900Z AUTO 29005KT 220V350 9999 SCT027 BKN032 BKN039 05/04 Q1011 TEMPO VRB15G25KT 4000 SHRA SCT014TCU

TAF AMD TAF LFLP
Valide du 27 à 18h jusqu'au 28 à 15h UTC


271855Z 2718/2815 30010KT 9999 BKN025
TEMPO 2718/2721 VRB15G25KT 4000 SHRA BKN014TCU
BECMG 2801/2803 VRB02KT CAVOK
PROB30 2803/2808 3000 BR



MET'MAP, la Météo Aéronautique d'un coup d'oeil ! - Copyright ORBIFLY Décembre 2007 - Disclaimer

ORBIFLY MET'MAP TEAM :

Programmation & Développement : Alexandra Zaïnal
Sur une idée originale de : Baudouin d'Aumeries
Assistance à la programmation : Marc-Olivier Méhu
Soutien technique & logistique : Manuel Goepfert

Contact : metmap@orbifly.com




SOURCES & CREDITS :

   NOAA